Flag for Italy

Past Weather in 40°33'56.9"N, 8°17'26.0"E, Italy — Yesterday and Last 2 Weeks

Currently: 63 °F. Clear. (Weather station: Alghero Airport, Italy). See more current weather

Past Weather in 40°33'56.9"N, 8°17'26.0"E — Graph

°F

40°33'56.9"N, 8°17'26.0"E Temperature Yesterday

Maximum temperature yesterday: 82 °F (at 12:50 pm)
Minimum temperature yesterday: 54 °F (at 6:20 am)
Average temperature yesterday: 67 °F

High & Low Weather Summary for the Past Weeks

 TemperatureHumidityPressure
High82 °F (May 19, 1:50 pm)100% (May 10, 12:50 am)30.09 "Hg (May 10, 12:50 am)
Low48 °F (May 12, 4:50 am)26% (May 24, 12:50 pm)29.68 "Hg (May 15, 6:20 am)
Average66 °F76%29.91 "Hg
* Reported May 9 11:20 pm — May 24 11:50 pm, 40°33'56.9"N, 8°17'26.0"E. Weather by CustomWeather, © 2024

Note: Actual official high and low records may vary slightly from our data, if they occured in-between our weather recording intervals... More about our weather records

40°33'56.9"N, 8°17'26.0"E Weather History for the Previous 24 Hours

Scroll right to see more
 ConditionsComfort  
Time TempWeatherWind HumidityBarometerVisibility
11:50 pm
Fri, May 24
63 °FClear.7 mph94%30.01 "Hg10 mi
11:20 pm63 °FClear.7 mph88%30.04 "Hg10 mi
10:50 pm63 °FMild.5 mph94%30.04 "HgN/A
10:20 pm64 °FMild.3 mph88%30.04 "HgN/A
9:50 pm66 °FMild.8 mph83%30.01 "HgN/A
9:20 pm66 °FMild.10 mph88%30.01 "HgN/A
8:50 pm70 °FMild.8 mph60%30.01 "HgN/A
8:20 pm73 °FMild.9 mph50%30.01 "HgN/A
7:50 pm75 °FMild.7 mph47%30.01 "HgN/A
7:20 pm77 °FWarm.3 mph44%30.01 "HgN/A
6:50 pm77 °FWarm.3 mph44%30.04 "HgN/A
6:20 pm77 °FWarm.5 mph44%30.04 "HgN/A
5:50 pm77 °FWarm.6 mph47%30.04 "HgN/A
5:20 pm75 °FMild.7 mph50%30.04 "HgN/A
4:50 pm77 °FWarm.6 mph47%30.04 "HgN/A
4:20 pm75 °FMild.8 mph54%30.04 "HgN/A
3:20 pm77 °FWarm.10 mph47%30.04 "HgN/A
2:50 pm79 °FPassing clouds.9 mph45%30.04 "HgN/A
2:20 pm81 °FPassing clouds.8 mph42%30.04 "HgN/A
1:50 pm82 °FSunny.5 mph42%30.04 "Hg10 mi
12:50 pm82 °FPassing clouds.7 mph26%30.04 "HgN/A
12:20 pm81 °FPassing clouds.6 mph32%30.04 "HgN/A
11:50 am79 °FPassing clouds.7 mph37%30.04 "HgN/A
11:20 am77 °FPassing clouds.7 mph39%30.07 "HgN/A
10:20 am73 °FSunny.13 mph47%30.07 "Hg10 mi
9:50 am72 °FSunny.12 mph50%30.07 "Hg10 mi
8:50 am64 °FSunny.9 mph73%30.07 "Hg10 mi
8:20 am63 °FPassing clouds.5 mph73%30.07 "HgN/A
7:50 am59 °FSunny.6 mph82%30.07 "Hg10 mi
7:20 am57 °FSunny.7 mph77%30.07 "Hg10 mi
6:50 am55 °FSunny.5 mph82%30.07 "Hg10 mi
6:20 am54 °FSunny.5 mph88%30.07 "Hg10 mi
5:50 am57 °FClear.6 mph77%30.07 "Hg10 mi
5:20 am55 °FClear.6 mph82%30.07 "Hg10 mi
4:50 am55 °FClear.7 mph82%30.07 "Hg10 mi
4:20 am57 °FClear.6 mph82%30.07 "Hg10 mi
3:50 am55 °FClear.1 mph88%30.07 "Hg10 mi
3:20 am57 °FClear.5 mph82%30.07 "Hg10 mi
2:50 am57 °FClear.5 mph82%30.07 "Hg10 mi
2:20 am59 °FClear.3 mph77%30.07 "Hg10 mi
1:50 am57 °FClear.3 mph88%30.07 "Hg10 mi
1:20 am57 °FClear.6 mph94%30.07 "Hg10 mi
Weather by CustomWeather, © 2024

See weather overview